Time,TemperatureF,DewpointF,PressureIn,WindDirection,WindDirectionDegrees,WindSpeedMPH,WindSpeedGustMPH,Humidity,HourlyPrecipIn,Conditions,Clouds,dailyrainin,SoftwareType,DateUTC
2013-02-26 00:02:00,34.0,32.0,29.69,North,350,24.0,33.0,93,-99.99,,,-99.99,,2013-02-26 06:02:00,
2013-02-26 00:11:00,-999.0,-99.9,29.68,North,350,25.0,-999.0,-999,-99.99,,,-99.99,,2013-02-26 06:11:00,
2013-02-26 00:22:00,-999.0,-99.9,29.69,NNW,340,28.0,-999.0,-999,-99.99,,,-99.99,,2013-02-26 06:22:00,
2013-02-26 00:32:00,-999.0,-99.9,-100.00,NNW,340,25.0,-999.0,-999,-99.99,,,-99.99,,2013-02-26 06:32:00,
2013-02-26 00:41:00,32.0,30.0,29.68,NNW,340,29.0,33.0,92,-99.99,,,-99.99,,2013-02-26 06:41:00,
2013-02-26 00:51:00,32.0,30.0,29.68,NNW,340,28.0,31.0,92,-99.99,,,-99.99,,2013-02-26 06:51:00,
2013-02-26 01:01:00,32.0,30.0,29.68,NNW,340,28.0,31.0,92,-99.99,,,-99.99,,2013-02-26 07:01:00,
2013-02-26 01:11:00,32.0,30.0,29.69,NNW,340,24.0,32.0,92,-99.99,,,-99.99,,2013-02-26 07:11:00,
2013-02-26 01:22:00,32.0,30.0,29.69,NNW,340,28.0,35.0,92,-99.99,,,-99.99,,2013-02-26 07:22:00,
2013-02-26 01:31:00,32.0,30.0,29.69,NNW,340,30.0,38.0,92,-99.99,,,-99.99,,2013-02-26 07:31:00,
2013-02-26 01:41:00,32.0,30.0,29.69,NNW,340,28.0,-999.0,92,-99.99,,,-99.99,,2013-02-26 07:41:00,
2013-02-26 01:51:00,32.0,30.0,29.69,NNW,340,28.0,35.0,92,-99.99,,,-99.99,,2013-02-26 07:51:00,
2013-02-26 02:02:00,32.0,30.0,29.69,NNW,340,28.0,35.0,92,-99.99,,,-99.99,,2013-02-26 08:02:00,
2013-02-26 02:11:00,32.0,30.0,29.69,NNW,340,29.0,33.0,92,-99.99,,,-99.99,,2013-02-26 08:11:00,
2013-02-26 02:21:00,32.0,30.0,29.68,NNW,340,30.0,37.0,92,-99.99,,,-99.99,,2013-02-26 08:21:00,
2013-02-26 02:31:00,32.0,30.0,29.68,NNW,340,31.0,36.0,92,-99.99,,,-99.99,,2013-02-26 08:31:00,
2013-02-26 02:41:00,32.0,30.0,29.68,NNW,340,29.0,36.0,92,-99.99,,,-99.99,,2013-02-26 08:41:00,
2013-02-26 02:52:00,32.0,30.0,29.68,NNW,340,27.0,-999.0,92,-99.99,,,-99.99,,2013-02-26 08:52:00,
2013-02-26 03:01:00,32.0,30.0,29.68,NNW,340,27.0,-999.0,92,-99.99,,,-99.99,,2013-02-26 09:01:00,
2013-02-26 03:11:00,32.0,30.0,29.69,NNW,340,30.0,36.0,92,-99.99,,,-99.99,,2013-02-26 09:11:00,
2013-02-26 03:21:00,32.0,30.0,29.69,NNW,340,30.0,35.0,92,-99.99,,,-99.99,,2013-02-26 09:21:00,
2013-02-26 03:31:00,32.0,30.0,29.69,NNW,340,28.0,-999.0,92,-99.99,,,-99.99,,2013-02-26 09:31:00,
2013-02-26 03:43:00,32.0,30.0,29.69,NNW,330,28.0,35.0,92,-99.99,,,-99.99,,2013-02-26 09:43:00,
2013-02-26 03:51:00,32.0,30.0,29.70,NNW,330,27.0,-999.0,92,-99.99,,,-99.99,,2013-02-26 09:51:00,
2013-02-26 04:01:00,32.0,30.0,29.70,NNW,330,27.0,-999.0,92,-99.99,,,-99.99,,2013-02-26 10:01:00,
2013-02-26 04:11:00,32.0,30.0,29.70,NNW,330,27.0,-999.0,92,-99.99,,,-99.99,,2013-02-26 10:11:00,
2013-02-26 04:21:00,30.0,30.0,29.70,NNW,330,25.0,-999.0,100,-99.99,,,-99.99,,2013-02-26 10:21:00,
2013-02-26 04:31:00,30.0,30.0,29.70,NNW,330,27.0,-999.0,100,-99.99,,,-99.99,,2013-02-26 10:31:00,
2013-02-26 04:41:00,30.0,30.0,29.70,NNW,330,25.0,31.0,100,-99.99,,,-99.99,,2013-02-26 10:41:00,
2013-02-26 04:52:00,30.0,30.0,29.70,NNW,330,25.0,-999.0,100,-99.99,,,-99.99,,2013-02-26 10:52:00,
2013-02-26 05:01:00,30.0,30.0,29.70,NNW,330,25.0,-999.0,100,-99.99,,,-99.99,,2013-02-26 11:01:00,
2013-02-26 05:11:00,32.0,30.0,29.70,NNW,330,25.0,-999.0,92,-99.99,,,-99.99,,2013-02-26 11:11:00,
2013-02-26 05:21:00,30.0,30.0,29.71,NNW,330,23.0,-999.0,100,-99.99,,,-99.99,,2013-02-26 11:21:00,
2013-02-26 05:32:00,30.0,30.0,29.70,NNW,340,23.0,-999.0,100,-99.99,,,-99.99,,2013-02-26 11:32:00,
2013-02-26 05:41:00,30.0,30.0,29.70,NNW,340,22.0,-999.0,100,-99.99,,,-99.99,,2013-02-26 11:41:00,
2013-02-26 05:52:00,30.0,30.0,29.68,NNW,340,23.0,-999.0,100,-99.99,,,-99.99,,2013-02-26 11:52:00,
2013-02-26 06:01:00,30.0,30.0,29.68,NNW,340,23.0,-999.0,100,-99.99,,,-99.99,,2013-02-26 12:01:00,
2013-02-26 06:11:00,30.0,30.0,29.69,NNW,330,16.0,-999.0,100,-99.99,,,-99.99,,2013-02-26 12:11:00,
2013-02-26 06:22:00,30.0,28.0,29.70,NNW,340,22.0,-999.0,92,-99.99,,,-99.99,,2013-02-26 12:22:00,
2013-02-26 06:32:00,30.0,28.0,29.70,NNW,330,22.0,-999.0,92,-99.99,,,-99.99,,2013-02-26 12:32:00,
2013-02-26 06:42:00,30.0,28.0,29.70,NNW,340,21.0,-999.0,92,-99.99,,,-99.99,,2013-02-26 12:42:00,
2013-02-26 06:52:00,30.0,28.0,29.70,NNW,330,18.0,-999.0,92,-99.99,,,-99.99,,2013-02-26 12:52:00,
2013-02-26 07:01:00,30.0,28.0,29.70,NNW,330,18.0,-999.0,92,-99.99,,,-99.99,,2013-02-26 13:01:00,
2013-02-26 07:11:00,30.0,27.0,29.71,NNW,330,16.0,-999.0,86,-99.99,,,-99.99,,2013-02-26 13:11:00,
2013-02-26 07:21:00,30.0,27.0,29.70,NNW,330,16.0,-999.0,86,-99.99,,,-99.99,,2013-02-26 13:21:00,
2013-02-26 07:32:00,28.0,27.0,29.71,NNW,330,16.0,-999.0,92,-99.99,,,-99.99,,2013-02-26 13:32:00,
2013-02-26 07:42:00,28.0,27.0,29.71,NNW,330,16.0,-999.0,92,-99.99,,,-99.99,,2013-02-26 13:42:00,
2013-02-26 07:51:00,28.0,25.0,29.72,NW,320,17.0,-999.0,86,-99.99,,,-99.99,,2013-02-26 13:51:00,
2013-02-26 08:01:00,28.0,25.0,29.72,NW,320,17.0,-999.0,86,-99.99,,,-99.99,,2013-02-26 14:01:00,
2013-02-26 08:11:00,28.0,25.0,29.72,NW,320,16.0,-999.0,86,-99.99,,,-99.99,,2013-02-26 14:11:00,
2013-02-26 08:21:00,28.0,25.0,29.73,NW,320,17.0,-999.0,86,-99.99,,,-99.99,,2013-02-26 14:21:00,
2013-02-26 08:32:00,28.0,25.0,29.73,NNW,330,18.0,-999.0,86,-99.99,,,-99.99,,2013-02-26 14:32:00,
2013-02-26 08:42:00,28.0,25.0,29.73,NNW,330,20.0,-999.0,86,-99.99,,,-99.99,,2013-02-26 14:42:00,
2013-02-26 08:52:00,30.0,27.0,29.74,NNW,330,18.0,-999.0,86,-99.99,,,-99.99,,2013-02-26 14:52:00,
2013-02-26 09:02:00,30.0,27.0,29.74,NNW,330,18.0,-999.0,86,-99.99,,,-99.99,,2013-02-26 15:02:00,
2013-02-26 09:11:00,30.0,27.0,29.75,NW,320,16.0,-999.0,86,-99.99,,,-99.99,,2013-02-26 15:11:00,
2013-02-26 09:21:00,30.0,27.0,29.77,NW,310,17.0,-999.0,86,-99.99,,,-99.99,,2013-02-26 15:21:00,
2013-02-26 09:32:00,30.0,27.0,29.77,NW,310,17.0,-999.0,86,-99.99,,,-99.99,,2013-02-26 15:32:00,
2013-02-26 09:41:00,30.0,27.0,29.78,NW,310,17.0,-999.0,86,-99.99,,,-99.99,,2013-02-26 15:41:00,
2013-02-26 09:51:00,30.0,27.0,29.78,NW,320,18.0,-999.0,86,-99.99,,,-99.99,,2013-02-26 15:51:00,
2013-02-26 10:01:00,30.0,27.0,29.78,NW,320,18.0,-999.0,86,-99.99,,,-99.99,,2013-02-26 16:01:00,
2013-02-26 10:11:00,30.0,27.0,29.78,NNW,330,21.0,-999.0,86,-99.99,,,-99.99,,2013-02-26 16:11:00,
2013-02-26 10:22:00,30.0,27.0,29.78,NNW,340,20.0,-999.0,86,-99.99,,,-99.99,,2013-02-26 16:22:00,
2013-02-26 10:32:00,32.0,27.0,29.77,North,350,18.0,-999.0,80,-99.99,,,-99.99,,2013-02-26 16:32:00,
2013-02-26 10:42:00,32.0,27.0,29.77,North,350,21.0,-999.0,80,-99.99,,,-99.99,,2013-02-26 16:42:00,
2013-02-26 10:51:00,34.0,27.0,29.77,North,350,21.0,-999.0,74,-99.99,,,-99.99,,2013-02-26 16:51:00,
2013-02-26 11:01:00,34.0,27.0,29.77,North,350,21.0,-999.0,74,-99.99,,,-99.99,,2013-02-26 17:01:00,
2013-02-26 11:11:00,34.0,27.0,29.77,North,350,21.0,28.0,74,-99.99,,,-99.99,,2013-02-26 17:11:00,
2013-02-26 11:21:00,34.0,27.0,29.78,NNW,340,18.0,-999.0,74,-99.99,,,-99.99,,2013-02-26 17:21:00,
2013-02-26 11:32:00,34.0,27.0,29.78,NNW,330,20.0,-999.0,74,-99.99,,,-99.99,,2013-02-26 17:32:00,
2013-02-26 11:41:00,34.0,27.0,29.78,NNW,330,18.0,-999.0,74,-99.99,,,-99.99,,2013-02-26 17:41:00,
2013-02-26 11:52:00,34.0,28.0,29.78,NNW,330,18.0,22.0,80,-99.99,,,-99.99,,2013-02-26 17:52:00,
2013-02-26 12:01:00,34.0,28.0,29.78,NNW,330,18.0,22.0,80,-99.99,,,-99.99,,2013-02-26 18:01:00,
2013-02-26 12:12:00,36.0,28.0,29.79,NW,320,14.0,-999.0,74,-99.99,,,-99.99,,2013-02-26 18:12:00,
2013-02-26 12:21:00,36.0,28.0,29.79,NW,320,15.0,-999.0,74,-99.99,,,-99.99,,2013-02-26 18:21:00,
2013-02-26 12:32:00,36.0,27.0,29.79,NW,320,14.0,-999.0,69,-99.99,,,-99.99,,2013-02-26 18:32:00,
2013-02-26 12:42:00,36.0,27.0,29.79,NW,310,12.0,-999.0,69,-99.99,,,-99.99,,2013-02-26 18:42:00,
2013-02-26 12:52:00,36.0,28.0,29.78,NNW,330,12.0,-999.0,74,-99.99,,,-99.99,,2013-02-26 18:52:00,
2013-02-26 13:01:00,36.0,28.0,29.78,NNW,330,12.0,-999.0,74,-99.99,,,-99.99,,2013-02-26 19:01:00,
2013-02-26 13:11:00,36.0,27.0,29.79,NW,320,13.0,-999.0,69,-99.99,,,-99.99,,2013-02-26 19:11:00,
2013-02-26 13:22:00,36.0,27.0,29.78,NW,310,14.0,-999.0,69,-99.99,,,-99.99,,2013-02-26 19:22:00,
2013-02-26 13:32:00,36.0,27.0,29.78,NW,310,10.0,-999.0,69,-99.99,,,-99.99,,2013-02-26 19:32:00,
2013-02-26 13:41:00,36.0,27.0,29.78,NW,310,14.0,-999.0,69,-99.99,,,-99.99,,2013-02-26 19:41:00,
2013-02-26 13:51:00,36.0,27.0,29.78,NW,310,13.0,-999.0,69,-99.99,,,-99.99,,2013-02-26 19:51:00,
2013-02-26 14:01:00,36.0,27.0,29.78,NW,310,13.0,-999.0,69,-99.99,,,-99.99,,2013-02-26 20:01:00,
2013-02-26 14:11:00,36.0,27.0,29.78,NW,310,14.0,-999.0,69,-99.99,,,-99.99,,2013-02-26 20:11:00,
2013-02-26 14:21:00,36.0,27.0,29.77,NNW,330,13.0,-999.0,69,-99.99,,,-99.99,,2013-02-26 20:21:00,
2013-02-26 14:31:00,36.0,27.0,29.78,NW,320,13.0,-999.0,69,-99.99,,,-99.99,,2013-02-26 20:31:00,
2013-02-26 14:41:00,36.0,27.0,29.79,NW,320,12.0,-999.0,69,-99.99,,,-99.99,,2013-02-26 20:41:00,
2013-02-26 14:51:00,36.0,27.0,29.79,NW,320,12.0,-999.0,69,-99.99,,,-99.99,,2013-02-26 20:51:00,
2013-02-26 15:01:00,36.0,27.0,29.79,NW,320,12.0,-999.0,69,-99.99,,,-99.99,,2013-02-26 21:01:00,
2013-02-26 15:11:00,36.0,27.0,29.79,NNW,330,12.0,-999.0,69,-99.99,,,-99.99,,2013-02-26 21:11:00,
2013-02-26 15:21:00,36.0,27.0,29.79,NNW,330,10.0,-999.0,69,-99.99,,,-99.99,,2013-02-26 21:21:00,
2013-02-26 15:31:00,36.0,27.0,29.80,NW,310,10.0,-999.0,69,-99.99,,,-99.99,,2013-02-26 21:31:00,
2013-02-26 15:41:00,36.0,27.0,29.80,NW,320,12.0,-999.0,69,-99.99,,,-99.99,,2013-02-26 21:41:00,
2013-02-26 15:51:00,36.0,27.0,29.80,NW,320,9.0,-999.0,69,-99.99,,,-99.99,,2013-02-26 21:51:00,
2013-02-26 16:01:00,36.0,27.0,29.80,NW,320,9.0,-999.0,69,-99.99,,,-99.99,,2013-02-26 22:01:00,
2013-02-26 16:11:00,36.0,27.0,29.81,NW,310,8.0,-999.0,69,-99.99,,,-99.99,,2013-02-26 22:11:00,
2013-02-26 16:21:00,36.0,27.0,29.82,WNW,290,7.0,-999.0,69,-99.99,,,-99.99,,2013-02-26 22:21:00,
2013-02-26 16:31:00,36.0,27.0,29.82,WNW,300,8.0,-999.0,69,-99.99,,,-99.99,,2013-02-26 22:31:00,
2013-02-26 16:41:00,36.0,28.0,29.82,WNW,290,8.0,-999.0,74,-99.99,,,-99.99,,2013-02-26 22:41:00,
2013-02-26 16:51:00,34.0,27.0,29.82,WNW,300,10.0,-999.0,74,-99.99,,,-99.99,,2013-02-26 22:51:00,
2013-02-26 17:01:00,34.0,27.0,29.82,WNW,300,10.0,-999.0,74,-99.99,,,-99.99,,2013-02-26 23:01:00,
2013-02-26 17:11:00,34.0,27.0,29.82,WNW,300,10.0,-999.0,74,-99.99,,,-99.99,,2013-02-26 23:11:00,
2013-02-26 17:21:00,34.0,27.0,29.82,NW,310,10.0,-999.0,74,-99.99,,,-99.99,,2013-02-26 23:21:00,
2013-02-26 17:31:00,34.0,27.0,29.83,NW,310,9.0,-999.0,74,-99.99,,,-99.99,,2013-02-26 23:31:00,
2013-02-26 17:41:00,34.0,27.0,29.83,WNW,300,7.0,-999.0,74,-99.99,,,-99.99,,2013-02-26 23:41:00,
2013-02-26 17:52:00,32.0,27.0,29.83,WNW,300,7.0,-999.0,80,-99.99,,,-99.99,,2013-02-26 23:52:00,
2013-02-26 18:01:00,32.0,27.0,29.83,WNW,300,7.0,-999.0,80,-99.99,,,-99.99,,2013-02-27 00:01:00,
2013-02-26 18:11:00,32.0,27.0,29.83,NW,310,7.0,-999.0,80,-99.99,,,-99.99,,2013-02-27 00:11:00,
2013-02-26 18:21:00,30.0,27.0,29.84,NW,310,6.0,-999.0,86,-99.99,,,-99.99,,2013-02-27 00:21:00,
2013-02-26 18:31:00,30.0,27.0,29.85,NW,310,5.0,-999.0,86,-99.99,,,-99.99,,2013-02-27 00:31:00,
2013-02-26 18:41:00,30.0,27.0,29.86,NW,310,6.0,-999.0,86,-99.99,,,-99.99,,2013-02-27 00:41:00,
2013-02-26 18:51:00,30.0,27.0,29.87,WNW,300,3.0,-999.0,86,-99.99,,,-99.99,,2013-02-27 00:51:00,
2013-02-26 19:01:00,30.0,27.0,29.87,WNW,300,3.0,-999.0,86,-99.99,,,-99.99,,2013-02-27 01:01:00,
2013-02-26 19:11:00,30.0,27.0,29.88,WNW,290,6.0,-999.0,86,-99.99,,,-99.99,,2013-02-27 01:11:00,
2013-02-26 19:21:00,28.0,25.0,29.90,WNW,290,6.0,-999.0,86,-99.99,,,-99.99,,2013-02-27 01:21:00,
2013-02-26 19:32:00,28.0,25.0,29.91,West,280,7.0,-999.0,86,-99.99,,,-99.99,,2013-02-27 01:32:00,
2013-02-26 19:41:00,28.0,25.0,29.91,WNW,290,7.0,-999.0,86,-99.99,,,-99.99,,2013-02-27 01:41:00,
2013-02-26 19:51:00,28.0,25.0,29.92,WNW,300,7.0,-999.0,86,-99.99,,,-99.99,,2013-02-27 01:51:00,
2013-02-26 20:01:00,28.0,25.0,29.92,WNW,300,7.0,-999.0,86,-99.99,,,-99.99,,2013-02-27 02:01:00,
2013-02-26 20:14:00,30.0,25.0,29.92,NW,310,8.0,-999.0,80,-99.99,,,-99.99,,2013-02-27 02:14:00,
2013-02-26 20:22:00,30.0,27.0,29.92,NW,320,7.0,-999.0,86,-99.99,,,-99.99,,2013-02-27 02:22:00,
2013-02-26 20:32:00,30.0,27.0,29.92,NW,320,5.0,-999.0,86,-99.99,,,-99.99,,2013-02-27 02:32:00,
2013-02-26 20:42:00,30.0,25.0,29.91,NNW,330,7.0,-999.0,80,-99.99,,,-99.99,,2013-02-27 02:42:00,
2013-02-26 20:52:00,28.0,25.0,29.91,NW,320,5.0,-999.0,86,-99.99,,,-99.99,,2013-02-27 02:52:00,
2013-02-26 21:02:00,28.0,25.0,29.91,NW,320,5.0,-999.0,86,-99.99,,,-99.99,,2013-02-27 03:02:00,
2013-02-26 21:11:00,27.0,25.0,29.91,NW,320,6.0,-999.0,92,-99.99,,,-99.99,,2013-02-27 03:11:00,
2013-02-26 21:21:00,27.0,25.0,29.92,NNW,330,5.0,-999.0,92,-99.99,,,-99.99,,2013-02-27 03:21:00,
2013-02-26 21:32:00,27.0,23.0,29.91,NW,320,6.0,-999.0,86,-99.99,,,-99.99,,2013-02-27 03:32:00,
2013-02-26 21:41:00,27.0,23.0,29.91,NW,310,3.0,-999.0,86,-99.99,,,-99.99,,2013-02-27 03:41:00,
2013-02-26 21:51:00,27.0,23.0,29.91,NW,310,3.0,-999.0,86,-99.99,,,-99.99,,2013-02-27 03:51:00,
2013-02-26 22:01:00,27.0,23.0,29.91,NW,310,3.0,-999.0,86,-99.99,,,-99.99,,2013-02-27 04:01:00,
2013-02-26 22:11:00,25.0,21.0,29.91,NNW,330,5.0,-999.0,85,-99.99,,,-99.99,,2013-02-27 04:11:00,
2013-02-26 22:21:00,25.0,21.0,29.91,NNW,330,8.0,-999.0,85,-99.99,,,-99.99,,2013-02-27 04:21:00,
2013-02-26 22:32:00,25.0,21.0,29.91,NW,320,8.0,-999.0,85,-99.99,,,-99.99,,2013-02-27 04:32:00,
2013-02-26 22:41:00,25.0,21.0,29.91,NW,320,7.0,-999.0,85,-99.99,,,-99.99,,2013-02-27 04:41:00,
2013-02-26 22:51:00,25.0,21.0,29.92,NW,310,5.0,-999.0,85,-99.99,,,-99.99,,2013-02-27 04:51:00,
2013-02-26 23:01:00,25.0,21.0,29.92,NW,310,5.0,-999.0,85,-99.99,,,-99.99,,2013-02-27 05:01:00,
2013-02-26 23:11:00,25.0,21.0,29.93,NW,310,5.0,-999.0,85,-99.99,,,-99.99,,2013-02-27 05:11:00,
2013-02-26 23:22:00,27.0,23.0,29.93,WNW,300,6.0,-999.0,86,-99.99,,,-99.99,,2013-02-27 05:22:00,
2013-02-26 23:32:00,27.0,23.0,29.92,NW,320,6.0,-999.0,86,-99.99,,,-99.99,,2013-02-27 05:32:00,
2013-02-26 23:41:00,27.0,25.0,29.92,NW,320,8.0,-999.0,92,-99.99,,,-99.99,,2013-02-27 05:41:00,
2013-02-26 23:52:00,27.0,23.0,29.91,NW,320,7.0,-999.0,86,-99.99,,,-99.99,,2013-02-27 05:52:00,